Time;durP1;ratioP1;P1;durP2;ratioP2;P2;SDS_P1;SDS_P2;PMS_P1;PMS_P2;Temp;Humidity;BMP_temperature;BMP_pressure;BME280_temperature;BME280_humidity;BME280_pressure;Samples;Min_cycle;Max_cycle;Signal;HPM_P1;HPM_P2
2020/12/04 00:00:20;;;;;;;2.08;1.70;;;9.70;77.30;;;;;;5130407;27;20046;-45
2020/12/04 00:02:47;;;;;;;2.28;1.92;;;9.70;77.30;;;;;;5144978;27;20025;-45
2020/12/04 00:05:13;;;;;;;3.13;1.77;;;9.70;77.30;;;;;;5145716;27;20389;-45
2020/12/04 00:07:39;;;;;;;2.30;2.10;;;9.70;77.30;;;;;;5140617;27;20034;-45
2020/12/04 00:10:05;;;;;;;2.35;1.90;;;9.70;77.30;;;;;;5145796;27;20019;-45
2020/12/04 00:12:31;;;;;;;3.28;2.10;;;9.70;77.30;;;;;;5145768;27;20020;-45
2020/12/04 00:14:57;;;;;;;2.53;1.80;;;9.70;77.30;;;;;;5145498;27;20043;-45
2020/12/04 00:17:24;;;;;;;2.13;1.85;;;9.70;77.30;;;;;;5145183;27;20058;-45
2020/12/04 00:19:50;;;;;;;2.60;1.85;;;9.70;77.30;;;;;;5135469;27;20031;-45
2020/12/04 00:22:16;;;;;;;2.35;2.15;;;9.70;78.10;;;;;;5124942;28;20031;-45
2020/12/04 00:24:42;;;;;;;2.65;2.05;;;9.70;77.30;;;;;;5124706;28;20461;-45
2020/12/04 00:27:08;;;;;;;2.08;1.88;;;9.70;77.30;;;;;;5131508;27;20031;-45
2020/12/04 00:29:34;;;;;;;2.28;1.70;;;9.70;77.30;;;;;;5145347;27;20019;-45
2020/12/04 00:32:01;;;;;;;2.15;1.95;;;9.70;77.30;;;;;;5130527;27;20049;-45
2020/12/04 00:34:27;;;;;;;2.42;1.80;;;9.70;77.30;;;;;;5124611;28;20038;-46
2020/12/04 00:36:53;;;;;;;2.33;1.92;;;9.70;77.30;;;;;;5113646;28;20053;-45
2020/12/04 00:39:20;;;;;;;2.47;1.60;;;9.70;77.30;;;;;;5103993;28;20061;-45
2020/12/04 00:41:46;;;;;;;1.90;1.70;;;9.70;77.30;;;;;;5104102;28;20024;-46
2020/12/04 00:44:12;;;;;;;2.08;1.85;;;9.70;77.30;;;;;;5104202;28;20397;-45
2020/12/04 00:46:38;;;;;;;1.90;1.70;;;9.70;77.30;;;;;;5104086;28;20024;-44
2020/12/04 00:49:05;;;;;;;2.33;1.92;;;9.70;77.30;;;;;;5092681;27;20118;-45
2020/12/04 00:51:31;;;;;;;2.60;2.03;;;9.70;77.30;;;;;;5128681;27;20049;-45
2020/12/04 00:53:57;;;;;;;2.30;1.88;;;9.70;77.30;;;;;;5124155;28;20029;-45
2020/12/04 00:56:30;;;;;;;2.43;1.97;;;9.70;77.30;;;;;;5124160;28;20024;-45
2020/12/04 00:58:56;;;;;;;1.92;1.75;;;9.70;77.30;;;;;;5124042;28;20039;-45
2020/12/04 01:01:23;;;;;;;3.03;1.75;;;9.70;77.30;;;;;;5114805;28;20135;-45
2020/12/04 01:03:49;;;;;;;2.42;1.80;;;9.70;77.20;;;;;;5103730;28;20338;-45
2020/12/04 01:06:15;;;;;;;2.13;1.92;;;9.70;77.20;;;;;;5104941;28;20028;-45
2020/12/04 01:08:42;;;;;;;2.53;1.90;;;9.70;77.20;;;;;;5123953;28;20028;-45
2020/12/04 01:11:08;;;;;;;1.98;1.77;;;9.70;77.20;;;;;;5123926;28;20031;-45
2020/12/04 01:13:34;;;;;;;2.92;1.77;;;9.70;77.20;;;;;;5124032;28;20059;-45
2020/12/04 01:16:00;;;;;;;2.08;1.85;;;9.70;77.20;;;;;;5106827;28;20055;-45
2020/12/04 01:18:26;;;;;;;2.47;1.70;;;9.70;77.20;;;;;;5102950;28;20044;-45
2020/12/04 01:20:52;;;;;;;2.03;1.83;;;9.70;77.20;;;;;;5085210;28;20099;-45
2020/12/04 01:23:19;;;;;;;2.33;1.95;;;9.70;77.20;;;;;;5103588;28;20024;-45
2020/12/04 01:25:45;;;;;;;2.22;1.75;;;9.70;77.20;;;;;;5103305;28;20417;-45
2020/12/04 01:28:11;;;;;;;2.67;1.80;;;9.70;77.20;;;;;;5103038;28;20028;-46
2020/12/04 01:30:37;;;;;;;1.80;1.52;;;9.70;77.20;;;;;;5103281;28;20042;-45
2020/12/04 01:33:03;;;;;;;2.95;1.83;;;9.70;77.20;;;;;;5103508;28;20028;-46
2020/12/04 01:35:29;;;;;;;3.28;2.00;;;9.70;77.20;;;;;;5103330;28;20043;-45
2020/12/04 01:37:56;;;;;;;2.65;1.80;;;9.70;77.20;;;;;;5100509;28;20042;-45
2020/12/04 01:40:22;;;;;;;2.22;1.85;;;9.70;77.20;;;;;;5084676;28;20036;-45
2020/12/04 01:42:48;;;;;;;2.00;1.80;;;9.70;77.20;;;;;;5103265;28;20074;-45
2020/12/04 01:45:14;;;;;;;2.20;1.58;;;9.70;77.80;;;;;;5103354;28;20080;-45
2020/12/04 01:47:41;;;;;;;2.65;1.83;;;9.70;77.20;;;;;;5102971;28;20091;-46
2020/12/04 01:50:07;;;;;;;1.70;1.33;;;9.70;77.10;;;;;;5103009;28;20433;-45
2020/12/04 01:52:33;;;;;;;2.78;1.60;;;9.70;77.10;;;;;;5102917;28;20268;-45
2020/12/04 01:55:00;;;;;;;2.58;1.90;;;9.70;77.10;;;;;;5084748;28;20020;-45
2020/12/04 01:57:28;;;;;;;2.80;1.83;;;9.70;77.10;;;;;;5102841;28;20035;-45
2020/12/04 01:59:54;;;;;;;3.72;1.90;;;9.70;77.10;;;;;;5103148;28;20089;-45
2020/12/04 02:02:21;;;;;;;2.17;1.98;;;9.70;77.10;;;;;;5102983;28;20113;-46
2020/12/04 02:04:47;;;;;;;;;;;9.70;77.10;;;;;;5103222;28;20051;-45
2020/12/04 02:07:18;;;;;;;2.65;1.70;;;9.70;77.00;;;;;;5101962;28;19911;-45
2020/12/04 02:09:47;;;;;;;3.95;1.95;;;9.70;77.10;;;;;;5084664;28;20082;-45
2020/12/04 02:12:15;;;;;;;2.40;1.90;;;9.70;77.10;;;;;;5102984;28;20036;-45
2020/12/04 02:14:42;;;;;;;1.83;1.70;;;9.70;77.10;;;;;;5087465;28;20036;-45
2020/12/04 02:17:09;;;;;;;2.83;1.83;;;9.70;77.10;;;;;;5084678;28;20062;-45
2020/12/04 02:19:38;;;;;;;2.28;1.85;;;9.70;77.10;;;;;;5110292;28;20028;-45
2020/12/04 02:22:05;;;;;;;2.85;1.92;;;9.70;77.10;;;;;;5105898;28;20060;-48
2020/12/04 02:24:31;;;;;;;1.65;1.38;;;9.70;77.10;;;;;;5127280;28;20039;-45
2020/12/04 02:26:57;;;;;;;2.20;1.80;;;9.70;77.00;;;;;;5105315;28;20028;-45
2020/12/04 02:29:25;;;;;;;2.50;1.80;;;9.70;77.00;;;;;;5105142;28;20055;-45
2020/12/04 02:31:51;;;;;;;2.20;1.73;;;9.60;77.00;;;;;;5106622;28;20484;-46
2020/12/04 02:34:18;;;;;;;2.00;1.70;;;9.70;77.00;;;;;;5106717;28;20043;-46
2020/12/04 02:36:44;;;;;;;1.85;1.50;;;9.70;77.10;;;;;;5102089;28;20039;-45
2020/12/04 02:39:10;;;;;;;2.50;1.77;;;9.70;77.10;;;;;;5106635;28;20054;-45
2020/12/04 02:41:36;;;;;;;1.92;1.70;;;9.70;77.10;;;;;;5105945;28;20020;-45
2020/12/04 02:44:02;;;;;;;2.55;1.65;;;9.70;77.00;;;;;;5106575;28;20035;-45
2020/12/04 02:46:29;;;;;;;3.00;2.00;;;9.70;77.10;;;;;;5106625;28;20016;-45
2020/12/04 02:48:55;;;;;;;3.10;1.98;;;9.70;77.00;;;;;;5108541;28;20028;-45
2020/12/04 02:51:21;;;;;;;2.13;1.88;;;9.60;77.00;;;;;;5126697;28;20052;-46
2020/12/04 02:53:47;;;;;;;2.25;2.05;;;9.60;77.00;;;;;;5126888;28;20027;-44
2020/12/04 02:56:17;;;;;;;2.90;2.08;;;9.60;77.00;;;;;;5126692;28;20096;-45
2020/12/04 02:58:43;;;;;;;2.30;1.90;;;9.70;77.20;;;;;;5126491;28;20043;-45
2020/12/04 03:01:10;;;;;;;2.10;1.90;;;9.60;77.00;;;;;;5118598;28;20548;-45
2020/12/04 03:03:36;;;;;;;1.90;1.80;;;9.60;77.00;;;;;;5106185;28;20032;-45
2020/12/04 03:06:02;;;;;;;2.15;1.80;;;9.60;77.00;;;;;;5105930;28;20158;-45
2020/12/04 03:08:29;;;;;;;2.17;1.73;;;9.60;77.00;;;;;;5103769;28;20032;-45
2020/12/04 03:10:57;;;;;;;2.20;1.80;;;9.60;77.00;;;;;;5105690;28;20073;-46
2020/12/04 03:13:24;;;;;;;2.40;1.98;;;9.60;77.00;;;;;;5105698;28;20030;-45
2020/12/04 03:15:50;;;;;;;2.00;1.80;;;9.60;77.00;;;;;;5121450;28;20079;-45
2020/12/04 03:18:16;;;;;;;2.95;1.98;;;9.60;77.00;;;;;;5126422;28;20027;-45
2020/12/04 03:20:42;;;;;;;2.20;2.00;;;9.60;76.90;;;;;;5143550;27;20034;-45
2020/12/04 03:23:09;;;;;;;2.03;1.83;;;9.60;77.00;;;;;;5146740;27;20038;-45
2020/12/04 03:25:35;;;;;;;2.63;2.13;;;9.60;77.00;;;;;;5146750;27;20023;-46
2020/12/04 03:28:01;;;;;;;2.72;2.20;;;9.60;77.70;;;;;;5132099;27;20038;-46
2020/12/04 03:30:27;;;;;;;2.67;1.90;;;9.60;77.00;;;;;;5125941;28;20031;-45
2020/12/04 03:32:53;;;;;;;2.20;1.90;;;9.60;77.00;;;;;;5125661;28;20024;-44
2020/12/04 03:35:20;;;;;;;1.63;1.52;;;9.60;77.00;;;;;;5124759;28;20024;-45
2020/12/04 03:37:46;;;;;;;2.20;2.00;;;9.60;77.00;;;;;;5125023;27;20032;-46
2020/12/04 03:40:12;;;;;;;2.63;2.08;;;9.60;77.00;;;;;;5128315;27;20023;-45
2020/12/04 03:42:38;;;;;;;2.25;1.83;;;9.60;76.90;;;;;;5125741;27;20097;-45
2020/12/04 03:45:04;;;;;;;3.10;2.00;;;9.60;76.90;;;;;;5125827;28;20412;-45
2020/12/04 03:47:31;;;;;;;3.50;2.38;;;9.60;76.90;;;;;;5125588;28;20023;-45
2020/12/04 03:49:57;;;;;;;2.88;1.98;;;9.60;76.90;;;;;;5136699;27;20037;-46
2020/12/04 03:52:23;;;;;;;2.83;2.20;;;9.60;76.90;;;;;;5145047;27;20030;-46
2020/12/04 03:54:49;;;;;;;2.33;1.80;;;9.60;77.00;;;;;;5146452;27;20027;-45
2020/12/04 03:57:15;;;;;;;2.60;1.83;;;9.60;76.90;;;;;;5145876;27;20051;-46
2020/12/04 03:59:41;;;;;;;2.72;1.60;;;9.60;76.90;;;;;;5146097;27;20027;-45
2020/12/04 04:02:08;;;;;;;2.17;1.95;;;9.60;76.90;;;;;;5129736;27;20049;-45
2020/12/04 04:04:34;;;;;;;2.47;1.92;;;9.60;76.90;;;;;;5125334;28;20099;-45
2020/12/04 04:07:00;;;;;;;2.20;2.00;;;9.60;76.90;;;;;;5124707;28;20422;-45
2020/12/04 04:09:26;;;;;;;2.35;2.13;;;9.60;76.90;;;;;;5125352;28;20023;-44
2020/12/04 04:11:52;;;;;;;2.80;2.30;;;9.60;76.90;;;;;;5127020;27;20027;-45
2020/12/04 04:14:18;;;;;;;2.33;2.13;;;9.60;76.90;;;;;;5125208;28;20031;-44
2020/12/04 04:16:45;;;;;;;2.40;2.20;;;9.60;76.90;;;;;;5125052;28;20051;-45
2020/12/04 04:19:11;;;;;;;2.13;1.92;;;9.60;76.90;;;;;;5129580;27;20027;-45
2020/12/04 04:21:39;;;;;;;2.13;1.90;;;9.60;77.70;;;;;;5127122;27;20029;-45
2020/12/04 04:24:08;;;;;;;2.25;1.92;;;9.60;77.00;;;;;;5145651;27;20030;-45
2020/12/04 04:26:34;;;;;;;2.88;1.88;;;9.60;76.90;;;;;;5143196;27;20038;-45
2020/12/04 04:29:01;;;;;;;3.45;2.58;;;9.60;76.90;;;;;;5126522;27;20030;-45
2020/12/04 04:31:27;;;;;;;3.08;2.00;;;9.60;76.90;;;;;;5116506;28;20031;-45
2020/12/04 04:33:53;;;;;;;3.25;2.20;;;9.60;76.90;;;;;;5124855;28;20031;-45
2020/12/04 04:36:20;;;;;;;2.17;1.95;;;9.60;77.00;;;;;;5118879;28;20020;-45
2020/12/04 04:38:46;;;;;;;2.95;2.15;;;9.60;77.00;;;;;;5104301;28;20038;-46
2020/12/04 04:41:14;;;;;;;2.25;2.05;;;9.60;77.00;;;;;;5104005;28;20024;-45
2020/12/04 04:43:40;;;;;;;2.45;2.10;;;9.60;77.00;;;;;;5104464;28;20031;-45
2020/12/04 04:46:18;;;;;;;2.17;1.98;;;9.60;77.00;;;;;;5123574;28;20016;-45
2020/12/04 04:48:55;;;;;;;2.20;2.00;;;9.60;77.00;;;;;;5107263;27;20016;-45
2020/12/04 04:51:25;;;;;;;3.03;2.15;;;9.60;76.90;;;;;;5126702;27;20043;-45
2020/12/04 04:53:58;;;;;;;3.25;2.30;;;9.60;77.00;;;;;;5145177;27;20033;-45
2020/12/04 04:56:24;;;;;;;2.88;2.17;;;9.60;77.00;;;;;;5144857;27;20023;-45
2020/12/04 04:58:51;;;;;;;2.60;2.20;;;9.60;77.00;;;;;;5126814;27;20043;-45
2020/12/04 05:01:17;;;;;;;2.47;2.27;;;9.60;76.90;;;;;;5136338;27;20031;-46
2020/12/04 05:03:59;;;;;;;2.25;2.05;;;9.60;77.00;;;;;;5124161;28;20024;-45
2020/12/04 05:06:35;;;;;;;2.72;2.17;;;9.60;77.00;;;;;;5126199;27;20051;-45
2020/12/04 05:09:03;;;;;;;2.17;1.90;;;9.60;77.10;;;;;;5123957;28;20027;-44
2020/12/04 05:11:30;;;;;;;2.92;2.00;;;9.60;77.00;;;;;;5105956;28;20015;-45
2020/12/04 05:14:13;;;;;;;;;;;9.60;77.00;;;;;;5124797;28;20118;-45
2020/12/04 05:16:40;;;;;;;2.40;2.17;;;9.60;77.00;;;;;;5124225;28;19923;-45
2020/12/04 05:19:06;;;;;;;2.47;2.08;;;9.60;77.10;;;;;;5128056;27;20090;-45
2020/12/04 05:21:33;;;;;;;2.60;2.17;;;9.60;77.00;;;;;;5144512;27;20027;-45
2020/12/04 05:23:59;;;;;;;3.22;2.50;;;9.60;77.00;;;;;;5126172;27;20030;-45
2020/12/04 05:26:34;;;;;;;2.75;2.13;;;9.60;77.00;;;;;;5144566;27;20023;-45
2020/12/04 05:29:00;;;;;;;2.95;2.22;;;9.60;77.00;;;;;;5144562;27;20028;-45
2020/12/04 05:31:34;;;;;;;3.33;1.92;;;9.60;77.00;;;;;;5134361;27;20049;-45
2020/12/04 05:34:00;;;;;;;2.45;2.00;;;9.60;77.10;;;;;;5130576;27;20027;-45
2020/12/04 05:36:30;;;;;;;3.60;2.30;;;9.60;77.10;;;;;;5116269;28;20028;-45
2020/12/04 05:38:58;;;;;;;3.00;2.28;;;9.60;77.10;;;;;;5103418;28;20048;-45
2020/12/04 05:41:24;;;;;;;;;;;9.60;77.00;;;;;;5103715;28;20033;-45
2020/12/04 05:43:54;;;;;;;3.10;2.13;;;9.60;77.00;;;;;;5118434;28;19957;-45
2020/12/04 05:46:24;;;;;;;2.20;1.98;;;9.60;77.00;;;;;;5105732;28;20103;-45
2020/12/04 05:49:04;;;;;;;2.83;2.17;;;9.60;77.00;;;;;;5107400;28;20042;-45
2020/12/04 05:51:32;;;;;;;2.63;2.17;;;9.60;77.00;;;;;;5129478;28;20058;-45
2020/12/04 05:53:59;;;;;;;2.70;1.98;;;9.60;77.00;;;;;;5123481;28;20026;-46
2020/12/04 05:56:25;;;;;;;2.47;2.05;;;9.60;77.10;;;;;;5106069;28;20091;-45
2020/12/04 05:58:55;;;;;;;2.65;2.35;;;9.60;77.00;;;;;;5148127;27;20043;-45
2020/12/04 06:01:23;;;;;;;2.58;2.10;;;9.60;77.00;;;;;;5103689;28;20049;-44
2020/12/04 06:03:50;;;;;;;2.55;2.05;;;9.60;77.00;;;;;;5127687;28;20027;-45
2020/12/04 06:06:30;;;;;;;3.85;2.40;;;9.60;77.00;;;;;;5108015;27;20377;-45
2020/12/04 06:09:03;;;;;;;3.10;2.35;;;9.60;77.00;;;;;;5129899;27;20024;-45
2020/12/04 06:11:39;;;;;;;2.75;2.35;;;9.60;77.00;;;;;;5127659;28;20053;-46
2020/12/04 06:14:21;;;;;;;4.32;2.67;;;9.60;77.00;;;;;;5109734;28;20024;-45
2020/12/04 06:17:00;;;;;;;3.72;2.20;;;9.50;77.00;;;;;;5127419;28;20047;-45
2020/12/04 06:19:27;;;;;;;2.03;1.80;;;9.60;77.00;;;;;;5134173;27;20069;-46
2020/12/04 06:21:59;;;;;;;;;;;9.60;77.00;;;;;;5148335;27;20590;-45
2020/12/04 06:24:25;;;;;;;2.28;2.00;;;9.50;76.90;;;;;;5129190;27;19934;-45
2020/12/04 06:26:52;;;;;;;2.70;1.77;;;9.60;77.00;;;;;;5147585;27;20027;-45
2020/12/04 06:29:18;;;;;;;2.50;2.10;;;9.50;76.90;;;;;;5148011;27;20030;-45
2020/12/04 06:31:44;;;;;;;2.80;2.50;;;9.50;76.90;;;;;;5130177;27;20563;-45
2020/12/04 06:34:28;;;;;;;3.25;2.17;;;9.50;76.90;;;;;;5126888;28;20039;-45
2020/12/04 06:36:54;;;;;;;2.45;1.90;;;9.50;77.00;;;;;;5126140;28;20027;-46
2020/12/04 06:39:31;;;;;;;2.30;2.10;;;9.50;76.90;;;;;;5127096;28;20043;-45
2020/12/04 06:41:58;;;;;;;2.60;2.40;;;9.50;77.00;;;;;;5126914;28;20023;-45
2020/12/04 06:44:31;;;;;;;2.53;2.30;;;9.50;77.00;;;;;;5108427;28;20466;-45
2020/12/04 06:47:03;;;;;;;2.30;2.05;;;9.50;77.00;;;;;;5125720;28;20141;-46
2020/12/04 06:49:35;;;;;;;2.30;2.03;;;9.50;77.00;;;;;;5133842;27;20087;-45
2020/12/04 06:52:06;;;;;;;2.65;2.13;;;9.50;76.90;;;;;;5127661;27;20031;-45
2020/12/04 06:54:35;;;;;;;3.08;2.38;;;9.60;77.10;;;;;;5119344;28;20020;-45
2020/12/04 06:57:01;;;;;;;2.63;2.00;;;9.50;77.70;;;;;;5106171;28;20028;-45
2020/12/04 06:59:37;;;;;;;3.92;2.40;;;9.50;77.00;;;;;;5106246;28;20043;-45
2020/12/04 07:02:13;;;;;;;2.50;2.08;;;9.50;77.00;;;;;;5089473;28;20024;-45
2020/12/04 07:04:46;;;;;;;2.75;2.17;;;9.50;77.00;;;;;;5105653;28;20028;-45
2020/12/04 07:07:19;;;;;;;2.97;2.50;;;9.50;77.00;;;;;;5114784;28;20112;-45
2020/12/04 07:09:59;;;;;;;2.28;1.83;;;9.50;77.00;;;;;;5126186;28;20019;-45
2020/12/04 07:12:27;;;;;;;3.13;2.40;;;9.50;76.90;;;;;;5126452;28;20471;-45
2020/12/04 07:14:55;;;;;;;2.47;2.28;;;9.50;77.00;;;;;;5125756;28;20574;-45
2020/12/04 07:17:22;;;;;;;2.38;2.17;;;9.50;77.00;;;;;;5126191;28;20039;-46
2020/12/04 07:19:48;;;;;;;;;;;9.50;77.00;;;;;;5126666;28;20113;-45
2020/12/04 07:22:15;;;;;;;2.17;1.98;;;9.50;77.00;;;;;;5126152;28;19992;-45
2020/12/04 07:24:42;;;;;;;2.92;2.17;;;9.50;77.00;;;;;;5126072;28;20066;-45
2020/12/04 07:27:08;;;;;;;2.58;2.30;;;9.50;77.10;;;;;;5126054;28;20631;-46
2020/12/04 07:29:38;;;;;;;2.78;2.10;;;9.50;77.10;;;;;;5107720;28;20062;-45
2020/12/04 07:32:04;;;;;;;2.30;2.03;;;9.50;77.10;;;;;;5126098;28;20024;-45
2020/12/04 07:34:35;;;;;;;3.30;2.15;;;9.50;77.10;;;;;;5125730;28;20020;-45
2020/12/04 07:37:02;;;;;;;2.88;2.25;;;9.50;77.10;;;;;;5123618;28;20288;-45
2020/12/04 07:39:38;;;;;;;2.80;2.37;;;9.50;77.10;;;;;;5107587;28;20085;-45
2020/12/04 07:42:05;;;;;;;3.10;2.33;;;9.50;77.10;;;;;;5131151;27;20020;-45
2020/12/04 07:44:36;;;;;;;2.60;2.15;;;9.50;77.10;;;;;;5125529;28;20050;-45
2020/12/04 07:47:16;;;;;;;2.50;2.17;;;9.50;77.10;;;;;;5125839;28;20095;-45
2020/12/04 07:49:57;;;;;;;2.60;2.30;;;9.50;77.10;;;;;;5106173;28;20068;-45
2020/12/04 07:52:32;;;;;;;3.42;2.20;;;9.50;77.10;;;;;;5105182;28;20067;-45
2020/12/04 07:55:05;;;;;;;2.70;2.30;;;9.50;77.10;;;;;;5087234;28;20085;-45
2020/12/04 07:58:00;;;;;;;3.08;2.50;;;9.50;77.10;;;;;;5103544;28;20064;-45
2020/12/04 08:00:36;;;;;;;3.15;2.25;;;9.40;77.10;;;;;;5077271;28;20096;-45
2020/12/04 08:03:14;;;;;;;3.47;2.65;;;9.40;77.10;;;;;;5107092;28;20023;-45
2020/12/04 08:05:41;;;;;;;2.60;2.20;;;9.40;77.10;;;;;;5127457;27;20027;-45
2020/12/04 08:08:07;;;;;;;3.25;2.28;;;9.40;77.10;;;;;;5142178;27;20027;-45
2020/12/04 08:10:34;;;;;;;2.95;2.30;;;9.50;77.10;;;;;;5145825;27;20026;-45
2020/12/04 08:13:00;;;;;;;2.88;2.50;;;9.40;77.20;;;;;;5127188;27;20023;-45
2020/12/04 08:15:27;;;;;;;2.47;2.13;;;9.40;77.10;;;;;;5126957;27;20058;-45
2020/12/04 08:18:03;;;;;;;3.72;2.35;;;9.40;77.10;;;;;;5145393;27;20047;-45
2020/12/04 08:20:30;;;;;;;2.97;2.50;;;9.40;77.20;;;;;;5144675;27;20053;-45
2020/12/04 08:22:56;;;;;;;3.15;2.20;;;9.40;77.10;;;;;;5112371;28;20047;-45
2020/12/04 08:25:29;;;;;;;2.78;2.33;;;9.40;77.20;;;;;;5124538;28;20039;-45
2020/12/04 08:27:55;;;;;;;2.25;2.05;;;9.40;77.20;;;;;;5124858;28;20032;-45
2020/12/04 08:30:23;;;;;;;3.53;2.23;;;9.40;77.10;;;;;;5124735;28;20032;-44
2020/12/04 08:32:49;;;;;;;3.20;2.50;;;9.40;77.10;;;;;;5144909;27;20087;-45
2020/12/04 08:35:19;;;;;;;3.80;2.50;;;9.40;77.20;;;;;;5145108;27;20019;-45
2020/12/04 08:37:46;;;;;;;3.78;2.40;;;9.40;77.10;;;;;;5140643;27;20114;-46
2020/12/04 08:40:30;;;;;;;2.70;2.28;;;9.40;77.20;;;;;;5145142;27;20028;-45
2020/12/04 08:43:12;;;;;;;3.55;2.50;;;9.40;77.20;;;;;;5114779;28;20032;-45
2020/12/04 08:45:49;;;;;;;3.10;2.33;;;9.40;77.20;;;;;;5124158;28;20474;-45
2020/12/04 08:48:17;;;;;;;3.15;2.28;;;9.40;77.20;;;;;;5124302;28;20104;-45
2020/12/04 08:50:48;;;;;;;2.72;2.28;;;9.30;77.00;;;;;;5106001;28;20028;-45
2020/12/04 08:53:16;;;;;;;3.50;2.47;;;9.30;77.10;;;;;;5124397;28;20016;-45
2020/12/04 08:55:49;;;;;;;3.97;2.58;;;9.30;77.10;;;;;;5123954;28;20024;-45
2020/12/04 08:58:16;;;;;;;3.35;2.33;;;9.30;77.10;;;;;;5123998;28;20087;-45
2020/12/04 09:00:43;;;;;;;2.95;2.42;;;9.30;77.20;;;;;;5124070;28;20020;-45
2020/12/04 09:03:09;;;;;;;2.53;2.13;;;9.40;77.20;;;;;;5124125;28;20031;-45
2020/12/04 09:05:36;;;;;;;1.80;1.48;;;9.30;77.10;;;;;;5123373;28;20023;-45
2020/12/04 09:08:02;;;;;;;3.10;2.00;;;9.30;77.20;;;;;;5134654;27;20027;-44
2020/12/04 09:10:28;;;;;;;3.47;2.60;;;9.30;77.20;;;;;;5144843;27;20015;-46
2020/12/04 09:12:56;;;;;;;2.92;2.50;;;9.30;77.20;;;;;;5144320;27;20050;-45
2020/12/04 09:15:22;;;;;;;3.63;2.80;;;9.30;77.20;;;;;;5144215;27;20075;-45
2020/12/04 09:17:49;;;;;;;2.67;2.47;;;9.30;77.10;;;;;;5144354;27;20050;-45
2020/12/04 09:20:15;;;;;;;3.22;2.58;;;9.30;77.20;;;;;;5125971;27;20045;-45
2020/12/04 09:22:42;;;;;;;3.25;2.47;;;9.30;77.10;;;;;;5144362;27;20023;-45
2020/12/04 09:25:10;;;;;;;2.88;2.45;;;9.30;77.20;;;;;;5144025;27;20023;-45
2020/12/04 09:27:36;;;;;;;2.50;2.03;;;9.30;77.20;;;;;;5144340;27;20023;-45
2020/12/04 09:30:06;;;;;;;3.08;2.35;;;9.30;77.20;;;;;;5144359;27;20022;-45
2020/12/04 09:32:32;;;;;;;2.63;2.35;;;9.30;77.20;;;;;;5126002;27;20020;-45
2020/12/04 09:34:58;;;;;;;3.75;2.55;;;9.30;77.20;;;;;;5123676;28;20019;-45
2020/12/04 09:37:35;;;;;;;3.30;2.28;;;9.30;77.20;;;;;;5111930;28;20028;-46
2020/12/04 09:40:12;;;;;;;2.85;2.20;;;9.30;77.20;;;;;;5103233;28;20043;-45
2020/12/04 09:42:38;;;;;;;2.37;2.17;;;9.30;77.30;;;;;;5103022;28;20092;-45
2020/12/04 09:45:05;;;;;;;3.28;2.70;;;9.30;77.30;;;;;;5120200;28;20264;-45
2020/12/04 09:47:32;;;;;;;3.17;2.70;;;9.20;77.20;;;;;;5123275;28;20023;-45
2020/12/04 09:49:58;;;;;;;2.35;2.15;;;9.20;77.30;;;;;;5123362;28;20032;-45
2020/12/04 09:52:25;;;;;;;3.10;2.40;;;9.20;77.20;;;;;;5123409;28;20019;-45
2020/12/04 09:54:51;;;;;;;2.95;2.35;;;9.20;77.20;;;;;;5123462;28;20020;-45
2020/12/04 09:57:18;;;;;;;3.53;2.15;;;9.20;77.20;;;;;;5133968;28;20037;-45
2020/12/04 09:59:44;;;;;;;2.60;2.40;;;9.20;77.20;;;;;;5144056;28;20061;-44
2020/12/04 10:02:11;;;;;;;3.05;2.45;;;9.20;77.20;;;;;;5108658;28;20027;-45
2020/12/04 10:04:39;;;;;;;2.60;2.30;;;9.20;77.20;;;;;;5122875;28;20036;-45
2020/12/04 10:07:05;;;;;;;3.00;2.40;;;9.20;77.20;;;;;;5125504;28;20328;-45
2020/12/04 10:09:31;;;;;;;2.92;2.30;;;9.20;77.20;;;;;;5123226;28;20028;-45
2020/12/04 10:11:58;;;;;;;3.70;2.60;;;9.20;77.30;;;;;;5123175;28;20047;-45
2020/12/04 10:14:27;;;;;;;2.95;2.33;;;9.30;77.30;;;;;;5119604;28;20040;-45
2020/12/04 10:16:53;;;;;;;3.08;2.28;;;9.20;77.30;;;;;;5102511;28;20040;-45
2020/12/04 10:19:19;;;;;;;2.85;2.50;;;9.20;78.00;;;;;;5102068;28;20043;-45
2020/12/04 10:21:46;;;;;;;3.00;2.50;;;9.20;77.30;;;;;;5102717;28;20045;-45
2020/12/04 10:24:13;;;;;;;2.75;2.40;;;9.20;77.30;;;;;;5102546;28;20039;-44
2020/12/04 10:26:44;;;;;;;2.78;2.17;;;9.20;77.30;;;;;;5102369;28;20028;-44
2020/12/04 10:29:10;;;;;;;3.55;2.33;;;9.20;77.30;;;;;;5084729;28;20024;-45
2020/12/04 10:31:36;;;;;;;1.77;1.60;;;9.20;77.30;;;;;;5102839;28;20101;-45
2020/12/04 10:34:03;;;;;;;3.15;2.20;;;9.20;77.40;;;;;;5102627;28;20431;-45
2020/12/04 10:36:30;;;;;;;3.78;2.60;;;9.20;77.30;;;;;;5097809;28;20028;-45
2020/12/04 10:38:58;;;;;;;2.80;2.13;;;9.20;77.30;;;;;;5102421;28;20077;-45
2020/12/04 10:41:25;;;;;;;2.72;2.38;;;9.20;77.30;;;;;;5102311;28;20028;-45
2020/12/04 10:43:51;;;;;;;3.20;2.60;;;9.20;77.30;;;;;;5104450;28;20028;-45
2020/12/04 10:46:17;;;;;;;2.65;2.30;;;9.20;77.30;;;;;;5105985;28;20024;-45
2020/12/04 10:48:43;;;;;;;2.95;2.33;;;9.20;77.40;;;;;;5106174;28;20071;-45
2020/12/04 10:51:10;;;;;;;2.85;2.25;;;9.20;77.30;;;;;;5106096;28;20024;-45
2020/12/04 10:53:36;;;;;;;3.38;2.33;;;9.20;77.30;;;;;;5105898;28;20031;-46
2020/12/04 10:56:02;;;;;;;3.63;2.42;;;9.20;77.30;;;;;;5106153;28;20031;-45
2020/12/04 10:58:28;;;;;;;2.88;2.45;;;9.20;77.30;;;;;;5105697;28;20065;-45
2020/12/04 11:00:55;;;;;;;2.55;2.35;;;9.20;77.30;;;;;;5105818;28;20035;-45
2020/12/04 11:06:06;;;;;;;3.00;2.47;;;9.20;77.40;;;;;;5102065;28;20432;-45
2020/12/04 11:08:32;;;;;;;3.45;2.60;;;9.20;77.40;;;;;;5103320;28;20024;-45
2020/12/04 11:10:58;;;;;;;2.85;2.35;;;9.20;77.40;;;;;;5105687;28;20024;-45
2020/12/04 11:13:24;;;;;;;2.45;2.13;;;9.20;77.40;;;;;;5105584;28;20027;-46
2020/12/04 11:15:51;;;;;;;3.17;2.35;;;9.20;77.40;;;;;;5121357;28;20428;-45
2020/12/04 11:18:17;;;;;;;2.95;2.08;;;9.20;77.30;;;;;;5125889;28;20031;-45
2020/12/04 11:20:43;;;;;;;2.55;2.03;;;9.20;77.30;;;;;;5125880;28;20020;-45
2020/12/04 11:23:09;;;;;;;3.35;3.05;;;9.20;77.40;;;;;;5125739;28;20051;-44
2020/12/04 11:25:35;;;;;;;2.83;2.47;;;9.20;77.30;;;;;;5128441;27;20051;-45
2020/12/04 11:28:02;;;;;;;3.10;2.60;;;9.20;77.30;;;;;;5140230;27;20031;-46
2020/12/04 11:30:29;;;;;;;2.45;2.25;;;9.20;77.30;;;;;;5144637;27;20082;-45
2020/12/04 11:32:55;;;;;;;2.60;2.00;;;9.20;77.30;;;;;;5125932;28;20047;-44
2020/12/04 11:35:21;;;;;;;2.72;2.00;;;9.20;77.30;;;;;;5125578;28;20031;-45
2020/12/04 11:37:48;;;;;;;2.70;2.38;;;9.20;77.30;;;;;;5135263;27;20031;-48
2020/12/04 11:40:15;;;;;;;;;;;9.20;77.30;;;;;;5146821;27;20030;-45
2020/12/04 11:42:42;;;;;;;2.47;2.28;;;9.20;77.30;;;;;;5146060;27;19912;-45
2020/12/04 11:45:09;;;;;;;2.72;2.33;;;9.20;77.20;;;;;;5146214;27;20109;-45
2020/12/04 11:47:39;;;;;;;3.40;2.22;;;9.20;77.30;;;;;;5145857;27;20024;-45
2020/12/04 11:50:10;;;;;;;3.78;2.22;;;9.20;77.30;;;;;;5143451;27;20087;-46
2020/12/04 11:52:36;;;;;;;2.55;2.28;;;9.20;77.20;;;;;;5130568;27;20031;-45
2020/12/04 11:55:06;;;;;;;2.20;2.00;;;9.20;77.20;;;;;;5124319;28;20028;-45
2020/12/04 11:57:33;;;;;;;2.63;2.30;;;9.20;77.20;;;;;;5131736;27;20051;-45
2020/12/04 11:59:59;;;;;;;2.28;2.03;;;9.20;77.20;;;;;;5117795;28;20020;-45
2020/12/04 12:02:26;;;;;;;2.80;2.53;;;9.20;77.20;;;;;;5124966;28;20518;-45
2020/12/04 12:04:53;;;;;;;4.78;2.78;;;9.20;77.20;;;;;;5130298;27;20019;-45
2020/12/04 12:07:19;;;;;;;2.80;2.42;;;9.20;77.30;;;;;;5140850;27;20042;-45
2020/12/04 12:09:49;;;;;;;2.70;2.20;;;9.20;77.30;;;;;;5145341;27;20048;-46
2020/12/04 12:12:18;;;;;;;4.03;2.65;;;9.20;77.20;;;;;;5145493;27;20015;-45
2020/12/04 12:14:45;;;;;;;2.78;2.15;;;9.20;77.30;;;;;;5145386;27;20098;-45
2020/12/04 12:17:14;;;;;;;3.83;2.40;;;9.20;77.30;;;;;;5145310;27;20027;-44
2020/12/04 12:19:41;;;;;;;3.53;2.55;;;9.20;77.30;;;;;;5101004;28;20040;-45
2020/12/04 12:22:10;;;;;;;2.60;2.30;;;9.20;77.30;;;;;;5124598;28;20031;-45
2020/12/04 12:24:37;;;;;;;3.25;2.20;;;9.20;77.20;;;;;;5106298;28;20024;-46
2020/12/04 12:27:06;;;;;;;2.75;2.15;;;9.20;77.30;;;;;;5130652;27;20080;-45
2020/12/04 12:29:33;;;;;;;2.22;2.00;;;9.20;77.30;;;;;;5145041;27;20115;-45
2020/12/04 12:31:59;;;;;;;2.60;2.15;;;9.20;77.40;;;;;;5130502;27;20030;-45
2020/12/04 12:34:59;;;;;;;2.97;2.37;;;9.20;77.30;;;;;;5124403;28;20027;-45
2020/12/04 12:37:11;;;;;;;2.50;2.30;;;9.20;77.20;;;;;;5119531;28;20698;-44
2020/12/04 12:39:41;;;;;;;2.15;1.95;;;9.20;78.00;;;;;;5124011;27;20031;-45
2020/12/04 12:42:18;;;;;;;2.90;2.30;;;9.20;77.30;;;;;;5123749;28;20167;-45
2020/12/04 12:44:45;;;;;;;3.28;2.08;;;9.20;77.30;;;;;;5105780;28;20360;-45
2020/12/04 12:47:11;;;;;;;2.17;1.88;;;9.20;77.30;;;;;;5106088;28;20032;-45
2020/12/04 12:49:38;;;;;;;1.85;1.60;;;9.20;77.30;;;;;;5124119;28;20119;-46
2020/12/04 12:52:04;;;;;;;2.10;1.88;;;9.20;77.30;;;;;;5123836;28;20121;-45
2020/12/04 12:54:30;;;;;;;2.42;2.22;;;9.20;77.30;;;;;;5123982;28;20028;-45
2020/12/04 12:56:58;;;;;;;2.20;1.97;;;9.20;77.30;;;;;;5128998;27;20049;-45
2020/12/04 12:59:24;;;;;;;2.80;2.20;;;9.20;77.30;;;;;;5109081;27;20051;-46
2020/12/04 13:01:54;;;;;;;2.63;2.38;;;9.20;77.30;;;;;;5130857;27;20053;-45
2020/12/04 13:04:20;;;;;;;2.58;2.30;;;9.20;77.40;;;;;;5123978;28;20027;-45